Maghera, United Kingdom
Current Conditions -  °F | °C
As of 11:20 PM on Friday 19 Dec 2014 (Local Time) from EGAA Reporting Station
Broken Clouds Broken Clouds  
Wind Chill: 32°   Ceiling: 2800
Heat Index: 41°   Visibility: 6mi
Dew Point: 39°   Wind: 18mph
Humidity: 93%   Direction: 240°WSW
Pressure: 30.03"   Gusts: NA
Location:  54.84°N, 6.67°W
Report Text: EGAA 192320Z 24016KT 9999 SCT022 BKN028 BKN033 05/04 Q1017
Loading
Personal Weather Stations






























Interactive Weather Map New forecast layout! Learn more

10-Day Weather Forecast

Advertisements
Track Severe Weather on mobile